sensor_id;sensor_type;location;lat;lon;timestamp;pressure;altitude;pressure_sealevel;temperature;humidity
47815;BME280;33579;50.058;18.130;2023-06-19T00:00:11;99164.75;;;17.28;100.00
47815;BME280;33579;50.058;18.130;2023-06-19T00:01:13;99163.59;;;17.31;100.00
47815;BME280;33579;50.058;18.130;2023-06-19T00:02:14;99165.00;;;17.18;100.00
47815;BME280;33579;50.058;18.130;2023-06-19T00:03:16;99168.19;;;17.13;100.00
47815;BME280;33579;50.058;18.130;2023-06-19T00:04:18;99169.97;;;17.21;100.00
47815;BME280;33579;50.058;18.130;2023-06-19T00:05:20;99167.59;;;17.26;100.00
47815;BME280;33579;50.058;18.130;2023-06-19T00:06:21;99172.56;;;17.30;100.00
47815;BME280;33579;50.058;18.130;2023-06-19T00:07:23;99171.09;;;17.27;100.00
47815;BME280;33579;50.058;18.130;2023-06-19T00:08:24;99170.09;;;17.28;100.00
47815;BME280;33579;50.058;18.130;2023-06-19T00:09:26;99171.19;;;17.34;100.00
47815;BME280;33579;50.058;18.130;2023-06-19T00:10:28;99167.38;;;17.36;100.00
47815;BME280;33579;50.058;18.130;2023-06-19T00:11:29;99165.53;;;17.37;100.00
47815;BME280;33579;50.058;18.130;2023-06-19T00:12:32;99168.19;;;17.37;100.00
47815;BME280;33579;50.058;18.130;2023-06-19T00:13:33;99172.69;;;17.36;100.00
47815;BME280;33579;50.058;18.130;2023-06-19T00:14:36;99164.50;;;17.38;100.00
47815;BME280;33579;50.058;18.130;2023-06-19T00:15:38;99170.66;;;17.38;100.00
47815;BME280;33579;50.058;18.130;2023-06-19T00:16:39;99166.84;;;17.41;100.00
47815;BME280;33579;50.058;18.130;2023-06-19T00:17:41;99170.59;;;17.47;100.00
47815;BME280;33579;50.058;18.130;2023-06-19T00:18:43;99172.16;;;17.41;100.00
47815;BME280;33579;50.058;18.130;2023-06-19T00:19:45;99173.22;;;17.32;100.00
47815;BME280;33579;50.058;18.130;2023-06-19T00:20:46;99175.41;;;17.28;100.00
47815;BME280;33579;50.058;18.130;2023-06-19T00:21:48;99177.06;;;17.29;100.00
47815;BME280;33579;50.058;18.130;2023-06-19T00:22:50;99178.22;;;17.26;100.00
47815;BME280;33579;50.058;18.130;2023-06-19T00:23:52;99176.56;;;17.25;100.00
47815;BME280;33579;50.058;18.130;2023-06-19T00:24:54;99172.91;;;17.26;100.00
47815;BME280;33579;50.058;18.130;2023-06-19T00:25:55;99169.25;;;17.27;100.00
47815;BME280;33579;50.058;18.130;2023-06-19T00:26:57;99176.25;;;17.28;100.00
47815;BME280;33579;50.058;18.130;2023-06-19T00:27:58;99181.56;;;17.28;100.00
47815;BME280;33579;50.058;18.130;2023-06-19T00:29:00;99171.44;;;17.24;100.00
47815;BME280;33579;50.058;18.130;2023-06-19T00:30:05;99178.94;;;17.20;100.00
47815;BME280;33579;50.058;18.130;2023-06-19T00:31:07;99175.66;;;17.18;100.00
47815;BME280;33579;50.058;18.130;2023-06-19T00:32:08;99171.97;;;17.19;100.00
47815;BME280;33579;50.058;18.130;2023-06-19T00:33:10;99169.97;;;17.21;100.00
47815;BME280;33579;50.058;18.130;2023-06-19T00:34:11;99173.91;;;17.25;100.00
47815;BME280;33579;50.058;18.130;2023-06-19T00:35:14;99165.94;;;17.25;100.00
47815;BME280;33579;50.058;18.130;2023-06-19T00:36:16;99171.09;;;17.27;100.00
47815;BME280;33579;50.058;18.130;2023-06-19T00:37:19;99169.25;;;17.27;100.00
47815;BME280;33579;50.058;18.130;2023-06-19T00:38:21;99166.25;;;17.31;100.00
47815;BME280;33579;50.058;18.130;2023-06-19T00:39:25;99164.41;;;17.31;100.00
47815;BME280;33579;50.058;18.130;2023-06-19T00:40:29;99168.06;;;17.30;100.00
47815;BME280;33579;50.058;18.130;2023-06-19T00:41:32;99167.91;;;17.32;100.00
47815;BME280;33579;50.058;18.130;2023-06-19T00:42:34;99167.91;;;17.32;100.00
47815;BME280;33579;50.058;18.130;2023-06-19T00:43:35;99167.91;;;17.32;100.00
47815;BME280;33579;50.058;18.130;2023-06-19T00:44:37;99160.44;;;17.27;100.00
47815;BME280;33579;50.058;18.130;2023-06-19T00:45:39;99163.47;;;17.24;100.00
47815;BME280;33579;50.058;18.130;2023-06-19T00:46:40;99162.00;;;17.21;100.00
47815;BME280;33579;50.058;18.130;2023-06-19T00:47:42;99161.69;;;17.16;100.00
47815;BME280;33579;50.058;18.130;2023-06-19T00:48:44;99158.22;;;17.16;100.00
47815;BME280;33579;50.058;18.130;2023-06-19T00:49:46;99156.56;;;17.14;100.00
47815;BME280;33579;50.058;18.130;2023-06-19T00:50:49;99159.22;;;17.14;100.00
47815;BME280;33579;50.058;18.130;2023-06-19T00:51:52;99160.38;;;17.12;100.00
47815;BME280;33579;50.058;18.130;2023-06-19T00:52:53;99155.59;;;17.07;100.00
47815;BME280;33579;50.058;18.130;2023-06-19T00:53:55;99152.47;;;17.04;100.00
47815;BME280;33579;50.058;18.130;2023-06-19T00:54:57;99154.47;;;17.02;100.00
47815;BME280;33579;50.058;18.130;2023-06-19T00:56:00;99151.81;;;17.02;100.00
47815;BME280;33579;50.058;18.130;2023-06-19T00:57:02;99151.81;;;17.02;100.00
47815;BME280;33579;50.058;18.130;2023-06-19T00:58:04;99158.13;;;17.00;100.00
47815;BME280;33579;50.058;18.130;2023-06-19T00:59:15;99157.31;;;17.00;100.00
47815;BME280;33579;50.058;18.130;2023-06-19T01:00:17;99161.13;;;16.97;100.00
47815;BME280;33579;50.058;18.130;2023-06-19T01:01:19;99162.38;;;16.86;100.00
47815;BME280;33579;50.058;18.130;2023-06-19T01:02:22;99159.03;;;16.84;100.00
47815;BME280;33579;50.058;18.130;2023-06-19T01:03:24;99156.09;;;16.79;100.00
47815;BME280;33579;50.058;18.130;2023-06-19T01:04:26;99161.56;;;16.78;100.00
47815;BME280;33579;50.058;18.130;2023-06-19T01:05:30;99157.63;;;16.74;100.00
47815;BME280;33579;50.058;18.130;2023-06-19T01:07:01;99155.97;;;16.72;100.00
47815;BME280;33579;50.058;18.130;2023-06-19T01:09:34;99153.81;;;16.68;100.00
47815;BME280;33579;50.058;18.130;2023-06-19T01:10:41;99162.63;;;16.68;100.00
47815;BME280;33579;50.058;18.130;2023-06-19T01:11:48;99158.97;;;16.69;100.00
47815;BME280;33579;50.058;18.130;2023-06-19T01:15:01;99152.66;;;16.70;100.00
47815;BME280;33579;50.058;18.130;2023-06-19T01:16:04;99150.81;;;16.71;100.00
47815;BME280;33579;50.058;18.130;2023-06-19T01:17:08;99153.47;;;16.71;100.00
47815;BME280;33579;50.058;18.130;2023-06-19T01:18:12;99161.94;;;16.75;100.00
47815;BME280;33579;50.058;18.130;2023-06-19T01:19:19;99161.94;;;16.75;100.00
47815;BME280;33579;50.058;18.130;2023-06-19T01:20:21;99161.03;;;16.59;100.00
47815;BME280;33579;50.058;18.130;2023-06-19T01:21:23;99167.22;;;16.43;100.00
47815;BME280;33579;50.058;18.130;2023-06-19T01:23:32;99162.16;;;16.16;100.00
47815;BME280;33579;50.058;18.130;2023-06-19T01:24:34;99164.69;;;16.10;100.00
47815;BME280;33579;50.058;18.130;2023-06-19T01:25:37;99161.41;;;15.99;100.00
47815;BME280;33579;50.058;18.130;2023-06-19T01:26:40;99169.34;;;15.83;100.00
47815;BME280;33579;50.058;18.130;2023-06-19T01:27:42;99167.06;;;15.71;100.00
47815;BME280;33579;50.058;18.130;2023-06-19T01:28:44;99166.41;;;15.61;100.00
47815;BME280;33579;50.058;18.130;2023-06-19T01:29:47;99163.78;;;15.53;100.00
47815;BME280;33579;50.058;18.130;2023-06-19T01:30:49;99161.78;;;15.55;100.00
47815;BME280;33579;50.058;18.130;2023-06-19T01:32:04;99161.94;;;15.62;100.00
47815;BME280;33579;50.058;18.130;2023-06-19T01:33:19;99164.41;;;15.71;100.00
47815;BME280;33579;50.058;18.130;2023-06-19T01:34:23;99162.75;;;15.79;100.00
47815;BME280;33579;50.058;18.130;2023-06-19T01:35:29;99154.78;;;15.87;100.00
47815;BME280;33579;50.058;18.130;2023-06-19T01:36:32;99151.97;;;15.97;100.00
47815;BME280;33579;50.058;18.130;2023-06-19T01:37:34;99157.06;;;16.07;100.00
47815;BME280;33579;50.058;18.130;2023-06-19T01:38:39;99160.53;;;16.15;100.00
47815;BME280;33579;50.058;18.130;2023-06-19T01:39:43;99160.66;;;16.22;100.00
47815;BME280;33579;50.058;18.130;2023-06-19T01:40:48;99157.34;;;16.28;100.00
47815;BME280;33579;50.058;18.130;2023-06-19T01:41:52;99157.31;;;16.37;100.00
47815;BME280;33579;50.058;18.130;2023-06-19T01:42:54;99155.13;;;16.40;100.00
47815;BME280;33579;50.058;18.130;2023-06-19T01:43:57;99152.78;;;16.46;100.00
47815;BME280;33579;50.058;18.130;2023-06-19T01:44:59;99153.44;;;16.48;100.00
47815;BME280;33579;50.058;18.130;2023-06-19T01:46:01;99162.22;;;16.48;100.00
47815;BME280;33579;50.058;18.130;2023-06-19T01:47:12;99154.94;;;16.50;100.00
47815;BME280;33579;50.058;18.130;2023-06-19T01:48:16;99150.44;;;16.51;100.00
47815;BME280;33579;50.058;18.130;2023-06-19T01:49:20;99147.91;;;16.57;100.00
47815;BME280;33579;50.058;18.130;2023-06-19T01:50:22;99152.41;;;16.57;100.00
47815;BME280;33579;50.058;18.130;2023-06-19T01:51:25;99154.06;;;16.58;100.00
47815;BME280;33579;50.058;18.130;2023-06-19T01:52:26;99152.22;;;16.58;100.00
47815;BME280;33579;50.058;18.130;2023-06-19T01:53:30;99157.53;;;16.58;100.00
47815;BME280;33579;50.058;18.130;2023-06-19T01:54:32;99157.06;;;16.55;100.00
47815;BME280;33579;50.058;18.130;2023-06-19T01:55:33;99155.38;;;16.54;100.00
47815;BME280;33579;50.058;18.130;2023-06-19T01:56:36;99165.56;;;16.50;100.00
47815;BME280;33579;50.058;18.130;2023-06-19T01:57:38;99160.69;;;16.54;100.00
47815;BME280;33579;50.058;18.130;2023-06-19T01:58:39;99161.69;;;16.53;100.00
47815;BME280;33579;50.058;18.130;2023-06-19T01:59:41;99166.44;;;16.34;100.00
47815;BME280;33579;50.058;18.130;2023-06-19T02:00:43;99166.81;;;16.23;100.00
47815;BME280;33579;50.058;18.130;2023-06-19T02:01:44;99167.53;;;16.08;100.00
47815;BME280;33579;50.058;18.130;2023-06-19T02:02:46;99165.19;;;15.88;100.00
47815;BME280;33579;50.058;18.130;2023-06-19T02:03:48;99166.09;;;15.64;100.00
47815;BME280;33579;50.058;18.130;2023-06-19T02:04:50;99170.53;;;15.55;100.00
47815;BME280;33579;50.058;18.130;2023-06-19T02:05:51;99165.91;;;15.49;100.00
47815;BME280;33579;50.058;18.130;2023-06-19T02:06:54;99163.94;;;15.51;100.00
47815;BME280;33579;50.058;18.130;2023-06-19T02:07:55;99162.28;;;15.58;100.00
47815;BME280;33579;50.058;18.130;2023-06-19T02:08:58;99167.91;;;15.64;100.00
47815;BME280;33579;50.058;18.130;2023-06-19T02:09:59;99165.91;;;15.49;100.00
47815;BME280;33579;50.058;18.130;2023-06-19T02:11:01;99172.88;;;15.50;100.00
47815;BME280;33579;50.058;18.130;2023-06-19T02:12:05;99167.72;;;15.49;100.00
47815;BME280;33579;50.058;18.130;2023-06-19T02:13:07;99171.56;;;15.46;100.00
47815;BME280;33579;50.058;18.130;2023-06-19T02:14:09;99169.22;;;15.26;100.00
47815;BME280;33579;50.058;18.130;2023-06-19T02:15:11;99166.75;;;15.16;100.00
47815;BME280;33579;50.058;18.130;2023-06-19T02:16:13;99164.41;;;15.22;100.00
47815;BME280;33579;50.058;18.130;2023-06-19T02:17:15;99164.59;;;15.20;100.00
47815;BME280;33579;50.058;18.130;2023-06-19T02:18:17;99166.91;;;15.23;100.00
47815;BME280;33579;50.058;18.130;2023-06-19T02:19:18;99165.59;;;15.27;100.00
47815;BME280;33579;50.058;18.130;2023-06-19T02:20:21;99162.94;;;15.27;100.00
47815;BME280;33579;50.058;18.130;2023-06-19T02:21:23;99166.09;;;15.31;100.00
47815;BME280;33579;50.058;18.130;2023-06-19T02:22:25;99163.09;;;15.34;100.00
47815;BME280;33579;50.058;18.130;2023-06-19T02:23:28;99166.44;;;15.28;100.00
47815;BME280;33579;50.058;18.130;2023-06-19T02:24:29;99162.75;;;15.21;100.00
47815;BME280;33579;50.058;18.130;2023-06-19T02:25:31;99161.28;;;15.10;100.00
47815;BME280;33579;50.058;18.130;2023-06-19T02:26:33;99154.81;;;15.04;100.00
47815;BME280;33579;50.058;18.130;2023-06-19T02:27:34;99155.94;;;15.01;100.00
47815;BME280;33579;50.058;18.130;2023-06-19T02:28:36;99157.78;;;15.09;100.00
47815;BME280;33579;50.058;18.130;2023-06-19T02:29:39;99161.94;;;15.20;100.00
47815;BME280;33579;50.058;18.130;2023-06-19T02:30:41;99163.78;;;15.28;100.00
47815;BME280;33579;50.058;18.130;2023-06-19T02:31:42;99159.16;;;15.38;100.00
47815;BME280;33579;50.058;18.130;2023-06-19T02:32:45;99161.97;;;15.45;100.00
47815;BME280;33579;50.058;18.130;2023-06-19T02:33:47;99161.28;;;15.51;100.00
47815;BME280;33579;50.058;18.130;2023-06-19T02:34:48;99162.94;;;15.52;100.00
47815;BME280;33579;50.058;18.130;2023-06-19T02:35:50;99156.63;;;15.53;100.00
47815;BME280;33579;50.058;18.130;2023-06-19T02:36:51;99160.78;;;15.56;100.00
47815;BME280;33579;50.058;18.130;2023-06-19T02:37:53;99162.59;;;15.55;100.00
47815;BME280;33579;50.058;18.130;2023-06-19T02:38:55;99169.56;;;15.56;100.00
47815;BME280;33579;50.058;18.130;2023-06-19T02:39:56;99164.09;;;15.58;100.00
47815;BME280;33579;50.058;18.130;2023-06-19T02:40:58;99164.75;;;15.60;100.00
47815;BME280;33579;50.058;18.130;2023-06-19T02:42:00;99161.94;;;15.62;100.00
47815;BME280;33579;50.058;18.130;2023-06-19T02:43:02;99160.59;;;15.66;100.00
47815;BME280;33579;50.058;18.130;2023-06-19T02:44:04;99156.63;;;15.70;100.00
47815;BME280;33579;50.058;18.130;2023-06-19T02:45:06;99163.09;;;15.67;100.00
47815;BME280;33579;50.058;18.130;2023-06-19T02:46:08;99165.59;;;15.52;100.00
47815;BME280;33579;50.058;18.130;2023-06-19T02:47:15;99167.91;;;15.47;100.00
47815;BME280;33579;50.058;18.130;2023-06-19T02:48:16;99164.78;;;15.52;100.00
47815;BME280;33579;50.058;18.130;2023-06-19T02:49:18;99167.06;;;15.55;100.00
47815;BME280;33579;50.058;18.130;2023-06-19T02:50:20;99166.94;;;15.56;100.00
47815;BME280;33579;50.058;18.130;2023-06-19T02:51:22;99167.72;;;15.57;100.00
47815;BME280;33579;50.058;18.130;2023-06-19T02:52:24;99168.09;;;15.62;100.00
47815;BME280;33579;50.058;18.130;2023-06-19T02:53:25;99166.41;;;15.69;100.00
47815;BME280;33579;50.058;18.130;2023-06-19T02:54:27;99168.06;;;15.79;100.00
47815;BME280;33579;50.058;18.130;2023-06-19T02:55:29;99165.91;;;15.74;100.00
47815;BME280;33579;50.058;18.130;2023-06-19T02:56:30;99172.69;;;15.60;100.00
47815;BME280;33579;50.058;18.130;2023-06-19T02:57:32;99167.25;;;15.37;100.00
47815;BME280;33579;50.058;18.130;2023-06-19T02:58:34;99171.22;;;15.24;100.00
47815;BME280;33579;50.058;18.130;2023-06-19T02:59:36;99168.88;;;15.29;100.00
47815;BME280;33579;50.058;18.130;2023-06-19T03:00:37;99173.06;;;15.40;100.00
47815;BME280;33579;50.058;18.130;2023-06-19T03:01:39;99175.69;;;15.49;100.00
47815;BME280;33579;50.058;18.130;2023-06-19T03:02:41;99170.88;;;15.52;100.00
47815;BME280;33579;50.058;18.130;2023-06-19T03:03:42;99170.72;;;15.62;100.00
47815;BME280;33579;50.058;18.130;2023-06-19T03:04:45;99174.84;;;15.65;100.00
47815;BME280;33579;50.058;18.130;2023-06-19T03:05:47;99170.56;;;15.72;100.00
47815;BME280;33579;50.058;18.130;2023-06-19T03:06:49;99171.19;;;15.82;100.00
47815;BME280;33579;50.058;18.130;2023-06-19T03:07:51;99176.66;;;15.89;100.00
47815;BME280;33579;50.058;18.130;2023-06-19T03:08:52;99165.38;;;15.95;100.00
47815;BME280;33579;50.058;18.130;2023-06-19T03:09:54;99171.84;;;16.01;100.00
47815;BME280;33579;50.058;18.130;2023-06-19T03:10:56;99175.63;;;16.07;100.00
47815;BME280;33579;50.058;18.130;2023-06-19T03:11:58;99172.63;;;16.10;100.00
47815;BME280;33579;50.058;18.130;2023-06-19T03:13:00;99167.66;;;16.15;100.00
47815;BME280;33579;50.058;18.130;2023-06-19T03:14:01;99181.09;;;16.22;100.00
47815;BME280;33579;50.058;18.130;2023-06-19T03:15:03;99175.25;;;16.26;100.00
47815;BME280;33579;50.058;18.130;2023-06-19T03:16:07;99173.78;;;16.24;100.00
47815;BME280;33579;50.058;18.130;2023-06-19T03:17:09;99171.81;;;16.18;100.00
47815;BME280;33579;50.058;18.130;2023-06-19T03:18:11;99177.78;;;16.20;100.00
47815;BME280;33579;50.058;18.130;2023-06-19T03:19:13;99174.41;;;16.26;100.00
47815;BME280;33579;50.058;18.130;2023-06-19T03:20:15;99169.44;;;16.31;100.00
47815;BME280;33579;50.058;18.130;2023-06-19T03:21:24;99170.41;;;16.38;100.00
47815;BME280;33579;50.058;18.130;2023-06-19T03:22:26;99180.34;;;16.44;100.00
47815;BME280;33579;50.058;18.130;2023-06-19T03:23:27;99178.81;;;16.50;100.00
47815;BME280;33579;50.058;18.130;2023-06-19T03:24:29;99165.84;;;16.55;100.00
47815;BME280;33579;50.058;18.130;2023-06-19T03:25:44;99163.69;;;16.59;100.00
47815;BME280;33579;50.058;18.130;2023-06-19T03:26:46;99170.28;;;16.63;100.00
47815;BME280;33579;50.058;18.130;2023-06-19T03:27:48;99162.81;;;16.67;100.00
47815;BME280;33579;50.058;18.130;2023-06-19T03:28:49;99170.41;;;16.70;100.00
47815;BME280;33579;50.058;18.130;2023-06-19T03:29:53;99165.41;;;16.75;100.00
47815;BME280;33579;50.058;18.130;2023-06-19T03:31:02;99168.38;;;16.80;100.00
47815;BME280;33579;50.058;18.130;2023-06-19T03:32:04;99166.88;;;16.78;100.00
47815;BME280;33579;50.058;18.130;2023-06-19T03:33:07;99167.09;;;16.68;100.00
47815;BME280;33579;50.058;18.130;2023-06-19T03:34:17;99169.88;;;16.43;100.00
47815;BME280;33579;50.058;18.130;2023-06-19T03:35:18;99169.16;;;16.18;100.00
47815;BME280;33579;50.058;18.130;2023-06-19T03:36:20;99173.00;;;15.98;100.00
47815;BME280;33579;50.058;18.130;2023-06-19T03:37:24;99171.50;;;15.87;100.00
47815;BME280;33579;50.058;18.130;2023-06-19T03:38:26;99170.56;;;15.72;100.00
47815;BME280;33579;50.058;18.130;2023-06-19T03:39:28;99175.50;;;15.67;100.00
47815;BME280;33579;50.058;18.130;2023-06-19T03:40:36;99171.38;;;15.64;100.00
47815;BME280;33579;50.058;18.130;2023-06-19T03:41:44;99170.38;;;15.65;100.00
47815;BME280;33579;50.058;18.130;2023-06-19T03:42:45;99175.00;;;15.71;100.00
47815;BME280;33579;50.058;18.130;2023-06-19T03:43:48;99170.84;;;15.77;100.00
47815;BME280;33579;50.058;18.130;2023-06-19T03:44:50;99173.66;;;15.84;100.00
47815;BME280;33579;50.058;18.130;2023-06-19T03:45:52;99172.19;;;15.90;100.00
47815;BME280;33579;50.058;18.130;2023-06-19T03:46:54;99176.50;;;15.91;100.00
47815;BME280;33579;50.058;18.130;2023-06-19T03:47:56;99169.38;;;15.74;100.00
47815;BME280;33579;50.058;18.130;2023-06-19T03:48:57;99176.00;;;15.70;100.00
47815;BME280;33579;50.058;18.130;2023-06-19T03:50:02;99181.16;;;15.64;100.00
47815;BME280;33579;50.058;18.130;2023-06-19T03:51:21;99175.19;;;15.70;100.00
47815;BME280;33579;50.058;18.130;2023-06-19T03:52:24;99183.47;;;15.67;100.00
47815;BME280;33579;50.058;18.130;2023-06-19T03:53:25;99183.16;;;15.62;100.00
47815;BME280;33579;50.058;18.130;2023-06-19T03:54:28;99180.34;;;15.63;100.00
47815;BME280;33579;50.058;18.130;2023-06-19T03:55:29;99180.16;;;15.65;100.00
47815;BME280;33579;50.058;18.130;2023-06-19T03:56:31;99181.66;;;15.59;100.00
47815;BME280;33579;50.058;18.130;2023-06-19T03:57:33;99174.03;;;15.64;100.00
47815;BME280;33579;50.058;18.130;2023-06-19T03:58:35;99177.34;;;15.74;100.00
47815;BME280;33579;50.058;18.130;2023-06-19T03:59:36;99176.97;;;15.86;100.00
47815;BME280;33579;50.058;18.130;2023-06-19T04:00:38;99182.81;;;15.81;100.00
47815;BME280;33579;50.058;18.130;2023-06-19T04:01:39;99174.19;;;15.71;100.00
47815;BME280;33579;50.058;18.130;2023-06-19T04:02:41;99178.50;;;15.64;100.00
47815;BME280;33579;50.058;18.130;2023-06-19T04:03:43;99173.88;;;15.57;100.00
47815;BME280;33579;50.058;18.130;2023-06-19T04:04:45;99181.00;;;15.49;100.00
47815;BME280;33579;50.058;18.130;2023-06-19T04:05:46;99181.16;;;15.55;100.00
47815;BME280;33579;50.058;18.130;2023-06-19T04:06:48;99182.31;;;15.61;100.00
47815;BME280;33579;50.058;18.130;2023-06-19T04:07:50;99183.81;;;15.64;100.00
47815;BME280;33579;50.058;18.130;2023-06-19T04:08:51;99184.50;;;15.57;100.00
47815;BME280;33579;50.058;18.130;2023-06-19T04:09:54;99184.13;;;15.52;100.00
47815;BME280;33579;50.058;18.130;2023-06-19T04:10:55;99179.34;;;15.31;100.00
47815;BME280;33579;50.058;18.130;2023-06-19T04:11:57;99181.31;;;15.29;100.00
47815;BME280;33579;50.058;18.130;2023-06-19T04:12:59;99183.47;;;15.25;100.00
47815;BME280;33579;50.058;18.130;2023-06-19T04:14:00;99181.16;;;15.39;100.00
47815;BME280;33579;50.058;18.130;2023-06-19T04:15:04;99189.63;;;15.42;100.00
47815;BME280;33579;50.058;18.130;2023-06-19T04:16:07;99186.16;;;15.58;100.00
47815;BME280;33579;50.058;18.130;2023-06-19T04:17:09;99184.31;;;15.67;100.00
47815;BME280;33579;50.058;18.130;2023-06-19T04:18:10;99182.31;;;15.69;100.00
47815;BME280;33579;50.058;18.130;2023-06-19T04:19:12;99178.16;;;15.75;100.00
47815;BME280;33579;50.058;18.130;2023-06-19T04:20:14;99184.78;;;15.79;100.00
47815;BME280;33579;50.058;18.130;2023-06-19T04:21:16;99185.31;;;15.91;100.00
47815;BME280;33579;50.058;18.130;2023-06-19T04:22:17;99177.16;;;16.01;100.00
47815;BME280;33579;50.058;18.130;2023-06-19T04:23:19;99179.13;;;16.07;100.00
47815;BME280;33579;50.058;18.130;2023-06-19T04:24:21;99174.63;;;16.16;100.00
47815;BME280;33579;50.058;18.130;2023-06-19T04:25:22;99176.78;;;16.12;100.00
47815;BME280;33579;50.058;18.130;2023-06-19T04:26:24;99177.44;;;16.14;100.00
47815;BME280;33579;50.058;18.130;2023-06-19T04:27:26;99178.06;;;16.25;100.00
47815;BME280;33579;50.058;18.130;2023-06-19T04:28:28;99174.25;;;16.27;100.00
47815;BME280;33579;50.058;18.130;2023-06-19T04:29:29;99174.41;;;16.34;100.00
47815;BME280;33579;50.058;18.130;2023-06-19T04:30:31;99182.38;;;16.26;100.00
47815;BME280;33579;50.058;18.130;2023-06-19T04:31:33;99179.22;;;16.30;100.00
47815;BME280;33579;50.058;18.130;2023-06-19T04:32:35;99179.06;;;16.32;100.00
47815;BME280;33579;50.058;18.130;2023-06-19T04:33:36;99179.00;;;16.40;100.00
47815;BME280;33579;50.058;18.130;2023-06-19T04:34:39;99179.69;;;16.42;100.00
47815;BME280;33579;50.058;18.130;2023-06-19T04:35:40;99179.34;;;16.46;100.00
47815;BME280;33579;50.058;18.130;2023-06-19T04:36:42;99173.38;;;16.43;100.00
47815;BME280;33579;50.058;18.130;2023-06-19T04:37:44;99178.50;;;16.45;100.00
47815;BME280;33579;50.058;18.130;2023-06-19T04:38:45;99173.50;;;16.50;100.00
47815;BME280;33579;50.058;18.130;2023-06-19T04:39:47;99177.47;;;16.54;100.00
47815;BME280;33579;50.058;18.130;2023-06-19T04:40:52;99163.84;;;16.57;100.00
47815;BME280;33579;50.058;18.130;2023-06-19T04:41:53;99170.00;;;16.58;100.00
47815;BME280;33579;50.058;18.130;2023-06-19T04:42:55;99166.97;;;16.61;100.00
47815;BME280;33579;50.058;18.130;2023-06-19T04:43:57;99170.28;;;16.63;100.00
47815;BME280;33579;50.058;18.130;2023-06-19T04:44:58;99168.63;;;16.62;100.00
47815;BME280;33579;50.058;18.130;2023-06-19T04:46:00;99173.59;;;16.65;100.00
47815;BME280;33579;50.058;18.130;2023-06-19T04:47:02;99177.38;;;16.71;100.00
47815;BME280;33579;50.058;18.130;2023-06-19T04:48:04;99172.41;;;16.68;100.00
47815;BME280;33579;50.058;18.130;2023-06-19T04:49:05;99172.94;;;16.63;100.00
47815;BME280;33579;50.058;18.130;2023-06-19T04:50:07;99182.91;;;16.61;100.00
47815;BME280;33579;50.058;18.130;2023-06-19T04:51:09;99167.81;;;16.62;100.00
47815;BME280;33579;50.058;18.130;2023-06-19T04:52:11;99171.47;;;16.61;100.00
47815;BME280;33579;50.058;18.130;2023-06-19T04:53:12;99166.34;;;16.59;100.00
47815;BME280;33579;50.058;18.130;2023-06-19T04:54:14;99167.28;;;16.66;100.00
47815;BME280;33579;50.058;18.130;2023-06-19T04:55:16;99167.56;;;16.80;100.00
47815;BME280;33579;50.058;18.130;2023-06-19T04:56:17;99167.69;;;16.86;100.00
47815;BME280;33579;50.058;18.130;2023-06-19T04:57:19;99167.81;;;16.93;100.00
47815;BME280;33579;50.058;18.130;2023-06-19T04:58:21;99169.09;;;16.97;100.00
47815;BME280;33579;50.058;18.130;2023-06-19T04:59:23;99171.91;;;17.04;100.00
47815;BME280;33579;50.058;18.130;2023-06-19T05:00:25;99171.75;;;17.06;100.00
47815;BME280;33579;50.058;18.130;2023-06-19T05:01:27;99179.88;;;17.04;100.00
47815;BME280;33579;50.058;18.130;2023-06-19T05:02:28;99182.91;;;17.01;100.00
47815;BME280;33579;50.058;18.130;2023-06-19T05:03:30;99189.34;;;17.07;100.00
47815;BME280;33579;50.058;18.130;2023-06-19T05:04:32;99182.13;;;17.16;100.00
47815;BME280;33579;50.058;18.130;2023-06-19T05:05:33;99184.53;;;17.25;100.00
47815;BME280;33579;50.058;18.130;2023-06-19T05:06:35;99186.69;;;17.30;100.00
47815;BME280;33579;50.058;18.130;2023-06-19T05:07:37;99190.50;;;17.27;100.00
47815;BME280;33579;50.058;18.130;2023-06-19T05:08:39;99185.91;;;17.21;100.00
47815;BME280;33579;50.058;18.130;2023-06-19T05:09:40;99183.09;;;17.23;100.00
47815;BME280;33579;50.058;18.130;2023-06-19T05:10:42;99187.53;;;17.31;100.00
47815;BME280;33579;50.058;18.130;2023-06-19T05:11:47;99180.94;;;17.41;100.00
47815;BME280;33579;50.058;18.130;2023-06-19T05:12:48;99182.69;;;17.49;100.00
47815;BME280;33579;50.058;18.130;2023-06-19T05:13:50;99178.88;;;17.52;100.00
47815;BME280;33579;50.058;18.130;2023-06-19T05:14:52;99177.31;;;17.58;100.00
47815;BME280;33579;50.058;18.130;2023-06-19T05:15:53;99178.91;;;17.67;100.00
47815;BME280;33579;50.058;18.130;2023-06-19T05:16:55;99178.00;;;17.75;100.00
47815;BME280;33579;50.058;18.130;2023-06-19T05:17:57;99183.91;;;17.85;100.00
47815;BME280;33579;50.058;18.130;2023-06-19T05:18:59;99181.78;;;17.95;100.00
47815;BME280;33579;50.058;18.130;2023-06-19T05:20:00;99192.41;;;17.95;100.00
47815;BME280;33579;50.058;18.130;2023-06-19T05:21:02;99189.72;;;18.04;100.00
47815;BME280;33579;50.058;18.130;2023-06-19T05:22:04;99185.13;;;18.12;100.00
47815;BME280;33579;50.058;18.130;2023-06-19T05:23:05;99191.56;;;18.18;100.00
47815;BME280;33579;50.058;18.130;2023-06-19T05:24:07;99182.94;;;18.31;100.00
47815;BME280;33579;50.058;18.130;2023-06-19T05:25:09;99193.94;;;18.43;100.00
47815;BME280;33579;50.058;18.130;2023-06-19T05:26:11;99189.69;;;18.49;100.00
47815;BME280;33579;50.058;18.130;2023-06-19T05:27:13;99191.34;;;18.65;100.00